Aeroporto :
LOGIN :

Iscrizione | Disclaimer

   EN    FR    IT 

 










Sommario :    VFR   VFR Marginale   IFR   IFR Intensivo   IFR Molto Intensivo
Visibilità : 
Base nubi : 
>= 8 km
>= 3000ft
5 / 8 km
1000 / 3000 ft
1500m / 5 km
500 / 1000 ft
800 / 1500m
200 / 500 ft
< 800m
< 200 ft
Simboli :   Temporali  Nebbia  Neve Forte  Precipitazioni Forti  Vento > 20 kt
SIGMETs :   Varie  Temporali  Ghiacco  Turbolenza  Onda orograficha  Ceneri Vulcaniche







- Altitudine del aeroporto : 1516 ft
- Codice IATA : AGB


EDMA - Augsburg

ULTIMO METAR :
  • 181320Z 24006KT 170V310 CAVOK 27/14 Q1018

METARs OBSOLETI :
  • 181250Z 22007KT CAVOK 27/14 Q1018
  • 181220Z 23006KT 180V270 CAVOK 27/14 Q1018
  • 181150Z 24005KT 180V280 CAVOK 26/15 Q1018
  • 181120Z 25004KT 180V320 CAVOK 26/15 Q1019

TAF TAF EDMA
Valido dal 18 a 12 ore il 18 a 21 ore UTC


181100Z 1812/1821 25005KT CAVOK
BECMG 1817/1819 19003KT
PROB30
TEMPO 1819/1821 SHRA SCT060CB
Nessun NOTAM noto per questo aeroporto.



MetMap, La meteo Aeronautica in un colpo d'occhio ! - Copyright ORBIFLY Dicembre 2007 - Disclaimer

ORBIFLY MET'MAP TEAM :

Programmazione e sviluppo : Alexandra Zaïnal
Concezione e sviluppo : Baudouin d'Aumeries
Co-Programmazione e sviluppo : Marc-Olivier Méhu
Supporto tecnico e logistico : Manuel Goepfert
Aiuto per la traduzione : Arnaldo La Scala

Contatto : metmap@orbifly.com




FONTI E CREDITI :

   NOAA